Terminal Aerodrome Forecast
Issued by NWS Jackson, KY

Home | Current Version | Previous Version | Text Only | Print | Product List | Glossary On
Versions: 1 2 3 4 5 6 7 8 9 10 11 12
000
FTUS43 KJKL 230520
TAFJKL
TAF
KJKL 230520Z 2306/2406 VRB04KT P6SM BKN250 WS020/16035KT
     FM231300 VRB03KT P6SM SHRA OVC080
     FM231600 17006KT 3SM SHRA OVC025
     FM240000 VRB05KT 6SM -SHRA OVC020
     FM240200 23006KT P6SM OVC015=

USA.gov is the U.S. government's official web portal to all federal, state and local government web resources and services.